sensor_id;sensor_type;location;lat;lon;timestamp;P1;durP1;ratioP1;P2;durP2;ratioP2
9661;SDS011;24982;52.344;12.990;2023-08-24T00:01:04;2.97;;;2.55;;
9661;SDS011;24982;52.344;12.990;2023-08-24T00:04:08;2.55;;;2.35;;
9661;SDS011;24982;52.344;12.990;2023-08-24T00:07:10;2.45;;;2.35;;
9661;SDS011;24982;52.344;12.990;2023-08-24T00:10:12;3.08;;;2.50;;
9661;SDS011;24982;52.344;12.990;2023-08-24T00:13:14;3.08;;;2.50;;
9661;SDS011;24982;52.344;12.990;2023-08-24T00:16:16;2.30;;;2.20;;
9661;SDS011;24982;52.344;12.990;2023-08-24T00:19:20;2.78;;;2.60;;
9661;SDS011;24982;52.344;12.990;2023-08-24T00:22:22;2.90;;;2.70;;
9661;SDS011;24982;52.344;12.990;2023-08-24T00:25:24;3.22;;;2.50;;
9661;SDS011;24982;52.344;12.990;2023-08-24T00:28:26;2.22;;;2.13;;
9661;SDS011;24982;52.344;12.990;2023-08-24T00:31:28;2.50;;;2.40;;
9661;SDS011;24982;52.344;12.990;2023-08-24T00:34:32;2.63;;;2.45;;
9661;SDS011;24982;52.344;12.990;2023-08-24T00:37:34;2.90;;;2.63;;
9661;SDS011;24982;52.344;12.990;2023-08-24T00:40:36;2.58;;;2.38;;
9661;SDS011;24982;52.344;12.990;2023-08-24T00:43:39;2.70;;;2.50;;
9661;SDS011;24982;52.344;12.990;2023-08-24T00:46:41;2.53;;;2.33;;
9661;SDS011;24982;52.344;12.990;2023-08-24T00:49:44;2.40;;;2.30;;
9661;SDS011;24982;52.344;12.990;2023-08-24T00:52:47;2.70;;;2.42;;
9661;SDS011;24982;52.344;12.990;2023-08-24T00:55:50;2.50;;;2.33;;
9661;SDS011;24982;52.344;12.990;2023-08-24T00:58:52;4.50;;;2.55;;
9661;SDS011;24982;52.344;12.990;2023-08-24T01:01:55;2.50;;;2.30;;
9661;SDS011;24982;52.344;12.990;2023-08-24T01:04:59;2.30;;;2.20;;
9661;SDS011;24982;52.344;12.990;2023-08-24T01:08:03;2.80;;;2.40;;
9661;SDS011;24982;52.344;12.990;2023-08-24T01:11:09;2.55;;;2.38;;
9661;SDS011;24982;52.344;12.990;2023-08-24T01:14:23;2.25;;;2.15;;
9661;SDS011;24982;52.344;12.990;2023-08-24T01:17:32;2.53;;;2.33;;
9661;SDS011;24982;52.344;12.990;2023-08-24T01:20:38;4.10;;;2.40;;
9661;SDS011;24982;52.344;12.990;2023-08-24T01:23:41;2.42;;;2.33;;
9661;SDS011;24982;52.344;12.990;2023-08-24T01:26:48;2.50;;;2.20;;
9661;SDS011;24982;52.344;12.990;2023-08-24T01:29:51;2.70;;;2.50;;
9661;SDS011;24982;52.344;12.990;2023-08-24T01:32:59;2.65;;;2.33;;
9661;SDS011;24982;52.344;12.990;2023-08-24T01:36:03;2.45;;;2.30;;
9661;SDS011;24982;52.344;12.990;2023-08-24T01:39:07;2.80;;;2.60;;
9661;SDS011;24982;52.344;12.990;2023-08-24T01:42:17;3.95;;;2.85;;
9661;SDS011;24982;52.344;12.990;2023-08-24T01:45:22;2.40;;;2.22;;
9661;SDS011;24982;52.344;12.990;2023-08-24T01:48:26;2.50;;;2.30;;
9661;SDS011;24982;52.344;12.990;2023-08-24T01:51:28;2.60;;;2.40;;
9661;SDS011;24982;52.344;12.990;2023-08-24T01:54:31;2.72;;;2.53;;
9661;SDS011;24982;52.344;12.990;2023-08-24T01:57:35;2.58;;;2.40;;
9661;SDS011;24982;52.344;12.990;2023-08-24T02:00:38;2.53;;;2.42;;
9661;SDS011;24982;52.344;12.990;2023-08-24T02:03:40;2.80;;;2.28;;
9661;SDS011;24982;52.344;12.990;2023-08-24T02:06:43;2.58;;;2.38;;
9661;SDS011;24982;52.344;12.990;2023-08-24T02:14:08;2.50;;;2.30;;
9661;SDS011;24982;52.344;12.990;2023-08-24T02:17:11;3.08;;;2.72;;
9661;SDS011;24982;52.344;12.990;2023-08-24T02:20:14;2.90;;;2.70;;
9661;SDS011;24982;52.344;12.990;2023-08-24T02:23:16;2.80;;;2.60;;
9661;SDS011;24982;52.344;12.990;2023-08-24T02:26:18;3.72;;;2.60;;
9661;SDS011;24982;52.344;12.990;2023-08-24T02:29:22;3.10;;;2.80;;
9661;SDS011;24982;52.344;12.990;2023-08-24T02:32:24;7.20;;;2.92;;
9661;SDS011;24982;52.344;12.990;2023-08-24T02:35:26;2.70;;;2.45;;
9661;SDS011;24982;52.344;12.990;2023-08-24T02:38:28;3.58;;;2.80;;
9661;SDS011;24982;52.344;12.990;2023-08-24T02:41:30;2.58;;;2.42;;
9661;SDS011;24982;52.344;12.990;2023-08-24T02:44:34;2.90;;;2.70;;
9661;SDS011;24982;52.344;12.990;2023-08-24T02:47:37;3.30;;;2.45;;
9661;SDS011;24982;52.344;12.990;2023-08-24T02:50:39;3.00;;;2.80;;
9661;SDS011;24982;52.344;12.990;2023-08-24T02:53:41;3.03;;;2.83;;
9661;SDS011;24982;52.344;12.990;2023-08-24T02:56:43;4.03;;;2.83;;
9661;SDS011;24982;52.344;12.990;2023-08-24T02:59:47;2.88;;;2.70;;
9661;SDS011;24982;52.344;12.990;2023-08-24T03:02:49;3.05;;;2.75;;
9661;SDS011;24982;52.344;12.990;2023-08-24T03:05:55;3.35;;;3.05;;
9661;SDS011;24982;52.344;12.990;2023-08-24T03:08:59;4.03;;;2.90;;
9661;SDS011;24982;52.344;12.990;2023-08-24T03:12:04;3.17;;;2.88;;
9661;SDS011;24982;52.344;12.990;2023-08-24T03:15:08;3.47;;;2.90;;
9661;SDS011;24982;52.344;12.990;2023-08-24T03:18:10;3.47;;;3.15;;
9661;SDS011;24982;52.344;12.990;2023-08-24T03:21:13;3.42;;;3.13;;
9661;SDS011;24982;52.344;12.990;2023-08-24T03:24:15;5.93;;;3.00;;
9661;SDS011;24982;52.344;12.990;2023-08-24T03:27:17;3.50;;;3.22;;
9661;SDS011;24982;52.344;12.990;2023-08-24T03:30:20;6.03;;;2.88;;
9661;SDS011;24982;52.344;12.990;2023-08-24T03:33:23;4.03;;;3.30;;
9661;SDS011;24982;52.344;12.990;2023-08-24T03:36:25;3.30;;;3.10;;
9661;SDS011;24982;52.344;12.990;2023-08-24T03:39:28;3.33;;;3.03;;
9661;SDS011;24982;52.344;12.990;2023-08-24T03:42:30;3.20;;;2.97;;
9661;SDS011;24982;52.344;12.990;2023-08-24T03:45:33;3.63;;;3.22;;
9661;SDS011;24982;52.344;12.990;2023-08-24T03:48:35;3.28;;;3.05;;
9661;SDS011;24982;52.344;12.990;2023-08-24T03:51:37;3.20;;;3.00;;
9661;SDS011;24982;52.344;12.990;2023-08-24T03:54:39;3.22;;;2.92;;
9661;SDS011;24982;52.344;12.990;2023-08-24T03:57:41;3.40;;;3.10;;
9661;SDS011;24982;52.344;12.990;2023-08-24T04:00:45;3.42;;;3.10;;
9661;SDS011;24982;52.344;12.990;2023-08-24T04:03:47;3.63;;;3.38;;
9661;SDS011;24982;52.344;12.990;2023-08-24T04:06:49;3.38;;;3.17;;
9661;SDS011;24982;52.344;12.990;2023-08-24T04:09:51;3.58;;;3.28;;
9661;SDS011;24982;52.344;12.990;2023-08-24T04:12:53;3.17;;;2.97;;
9661;SDS011;24982;52.344;12.990;2023-08-24T04:15:56;3.30;;;3.08;;
9661;SDS011;24982;52.344;12.990;2023-08-24T04:18:58;3.40;;;3.10;;
9661;SDS011;24982;52.344;12.990;2023-08-24T04:22:00;3.53;;;3.10;;
9661;SDS011;24982;52.344;12.990;2023-08-24T04:25:05;3.47;;;3.17;;
9661;SDS011;24982;52.344;12.990;2023-08-24T04:28:13;3.50;;;3.20;;
9661;SDS011;24982;52.344;12.990;2023-08-24T04:31:16;3.60;;;3.30;;
9661;SDS011;24982;52.344;12.990;2023-08-24T04:34:18;3.58;;;3.30;;
9661;SDS011;24982;52.344;12.990;2023-08-24T04:37:20;3.40;;;3.20;;
9661;SDS011;24982;52.344;12.990;2023-08-24T04:40:22;3.50;;;3.22;;
9661;SDS011;24982;52.344;12.990;2023-08-24T04:43:24;3.50;;;3.20;;
9661;SDS011;24982;52.344;12.990;2023-08-24T04:46:28;3.85;;;3.55;;
9661;SDS011;24982;52.344;12.990;2023-08-24T04:49:31;3.10;;;2.80;;
9661;SDS011;24982;52.344;12.990;2023-08-24T04:52:53;3.35;;;3.13;;
9661;SDS011;24982;52.344;12.990;2023-08-24T04:55:55;3.33;;;3.03;;
9661;SDS011;24982;52.344;12.990;2023-08-24T04:58:58;3.28;;;3.08;;
9661;SDS011;24982;52.344;12.990;2023-08-24T05:02:02;3.38;;;3.10;;
9661;SDS011;24982;52.344;12.990;2023-08-24T05:05:04;6.18;;;3.58;;
9661;SDS011;24982;52.344;12.990;2023-08-24T05:08:07;3.78;;;3.22;;
9661;SDS011;24982;52.344;12.990;2023-08-24T05:11:10;3.95;;;3.65;;
9661;SDS011;24982;52.344;12.990;2023-08-24T05:14:13;4.28;;;3.20;;
9661;SDS011;24982;52.344;12.990;2023-08-24T05:17:17;3.38;;;3.13;;
9661;SDS011;24982;52.344;12.990;2023-08-24T05:20:20;3.28;;;3.08;;
9661;SDS011;24982;52.344;12.990;2023-08-24T05:23:22;3.10;;;2.90;;
9661;SDS011;24982;52.344;12.990;2023-08-24T05:26:24;3.45;;;3.10;;
9661;SDS011;24982;52.344;12.990;2023-08-24T05:29:26;5.05;;;3.35;;
9661;SDS011;24982;52.344;12.990;2023-08-24T05:32:29;2.92;;;2.72;;
9661;SDS011;24982;52.344;12.990;2023-08-24T05:35:31;3.25;;;3.05;;
9661;SDS011;24982;52.344;12.990;2023-08-24T05:38:33;3.40;;;3.10;;
9661;SDS011;24982;52.344;12.990;2023-08-24T05:41:35;3.50;;;3.20;;
9661;SDS011;24982;52.344;12.990;2023-08-24T05:44:38;4.32;;;2.90;;
9661;SDS011;24982;52.344;12.990;2023-08-24T05:47:42;2.83;;;2.63;;
9661;SDS011;24982;52.344;12.990;2023-08-24T05:50:44;2.65;;;2.55;;
9661;SDS011;24982;52.344;12.990;2023-08-24T05:53:46;6.80;;;3.00;;
9661;SDS011;24982;52.344;12.990;2023-08-24T05:56:48;3.53;;;2.97;;
9661;SDS011;24982;52.344;12.990;2023-08-24T05:59:50;3.60;;;3.22;;
9661;SDS011;24982;52.344;12.990;2023-08-24T06:02:53;4.18;;;3.40;;
9661;SDS011;24982;52.344;12.990;2023-08-24T06:06:00;5.60;;;3.30;;
9661;SDS011;24982;52.344;12.990;2023-08-24T06:09:03;5.03;;;3.80;;
9661;SDS011;24982;52.344;12.990;2023-08-24T06:12:06;3.60;;;3.30;;
9661;SDS011;24982;52.344;12.990;2023-08-24T06:15:08;3.40;;;3.20;;
9661;SDS011;24982;52.344;12.990;2023-08-24T06:18:14;4.28;;;3.63;;
9661;SDS011;24982;52.344;12.990;2023-08-24T06:21:17;5.28;;;4.03;;
9661;SDS011;24982;52.344;12.990;2023-08-24T06:24:18;5.32;;;4.38;;
9661;SDS011;24982;52.344;12.990;2023-08-24T06:27:20;4.10;;;3.80;;
9661;SDS011;24982;52.344;12.990;2023-08-24T06:30:23;5.18;;;4.07;;
9661;SDS011;24982;52.344;12.990;2023-08-24T06:33:28;5.97;;;4.18;;
9661;SDS011;24982;52.344;12.990;2023-08-24T06:36:30;4.43;;;4.03;;
9661;SDS011;24982;52.344;12.990;2023-08-24T06:39:32;5.03;;;4.22;;
9661;SDS011;24982;52.344;12.990;2023-08-24T06:42:34;4.38;;;3.97;;
9661;SDS011;24982;52.344;12.990;2023-08-24T06:45:36;5.25;;;4.55;;
9661;SDS011;24982;52.344;12.990;2023-08-24T06:48:40;5.18;;;4.78;;
9661;SDS011;24982;52.344;12.990;2023-08-24T06:51:43;6.90;;;5.70;;
9661;SDS011;24982;52.344;12.990;2023-08-24T06:54:45;6.03;;;5.43;;
9661;SDS011;24982;52.344;12.990;2023-08-24T06:57:49;5.72;;;5.00;;
9661;SDS011;24982;52.344;12.990;2023-08-24T07:00:51;5.68;;;4.78;;
9661;SDS011;24982;52.344;12.990;2023-08-24T07:03:55;6.10;;;5.20;;
9661;SDS011;24982;52.344;12.990;2023-08-24T07:06:57;5.03;;;4.53;;
9661;SDS011;24982;52.344;12.990;2023-08-24T07:10:00;9.13;;;6.75;;
9661;SDS011;24982;52.344;12.990;2023-08-24T07:13:02;5.53;;;5.03;;
9661;SDS011;24982;52.344;12.990;2023-08-24T07:16:04;7.43;;;5.30;;
9661;SDS011;24982;52.344;12.990;2023-08-24T07:19:07;5.15;;;4.70;;
9661;SDS011;24982;52.344;12.990;2023-08-24T07:22:10;7.65;;;4.50;;
9661;SDS011;24982;52.344;12.990;2023-08-24T07:25:12;4.55;;;4.07;;
9661;SDS011;24982;52.344;12.990;2023-08-24T07:28:15;4.75;;;3.92;;
9661;SDS011;24982;52.344;12.990;2023-08-24T07:31:17;5.53;;;3.70;;
9661;SDS011;24982;52.344;12.990;2023-08-24T07:34:20;5.88;;;3.20;;
9661;SDS011;24982;52.344;12.990;2023-08-24T07:37:22;3.35;;;3.03;;
9661;SDS011;24982;52.344;12.990;2023-08-24T07:40:25;4.22;;;3.38;;
9661;SDS011;24982;52.344;12.990;2023-08-24T07:43:27;5.88;;;3.28;;
9661;SDS011;24982;52.344;12.990;2023-08-24T07:46:29;5.05;;;3.10;;
9661;SDS011;24982;52.344;12.990;2023-08-24T07:49:32;4.32;;;2.90;;
9661;SDS011;24982;52.344;12.990;2023-08-24T07:52:35;2.80;;;2.58;;
9661;SDS011;24982;52.344;12.990;2023-08-24T07:55:38;4.93;;;2.85;;
9661;SDS011;24982;52.344;12.990;2023-08-24T07:58:40;4.85;;;3.03;;
9661;SDS011;24982;52.344;12.990;2023-08-24T08:01:42;2.97;;;2.78;;
9661;SDS011;24982;52.344;12.990;2023-08-24T08:04:46;2.50;;;2.33;;
9661;SDS011;24982;52.344;12.990;2023-08-24T08:07:48;3.50;;;2.97;;
9661;SDS011;24982;52.344;12.990;2023-08-24T08:10:57;3.00;;;2.80;;
9661;SDS011;24982;52.344;12.990;2023-08-24T08:13:59;3.60;;;2.67;;
9661;SDS011;24982;52.344;12.990;2023-08-24T08:17:01;3.65;;;2.50;;
9661;SDS011;24982;52.344;12.990;2023-08-24T08:20:06;3.85;;;2.60;;
9661;SDS011;24982;52.344;12.990;2023-08-24T08:23:08;2.95;;;2.75;;
9661;SDS011;24982;52.344;12.990;2023-08-24T08:26:10;2.90;;;2.70;;
9661;SDS011;24982;52.344;12.990;2023-08-24T08:29:13;2.80;;;2.60;;
9661;SDS011;24982;52.344;12.990;2023-08-24T08:32:16;2.65;;;2.45;;
9661;SDS011;24982;52.344;12.990;2023-08-24T08:35:21;3.15;;;2.60;;
9661;SDS011;24982;52.344;12.990;2023-08-24T08:38:23;2.85;;;2.33;;
9661;SDS011;24982;52.344;12.990;2023-08-24T08:41:27;4.63;;;2.65;;
9661;SDS011;24982;52.344;12.990;2023-08-24T08:44:32;4.15;;;2.65;;
9661;SDS011;24982;52.344;12.990;2023-08-24T08:47:34;4.05;;;2.45;;
9661;SDS011;24982;52.344;12.990;2023-08-24T08:50:37;2.70;;;2.50;;
9661;SDS011;24982;52.344;12.990;2023-08-24T08:53:39;2.83;;;2.40;;
9661;SDS011;24982;52.344;12.990;2023-08-24T08:56:41;3.45;;;2.40;;
9661;SDS011;24982;52.344;12.990;2023-08-24T08:59:43;2.55;;;2.38;;
9661;SDS011;24982;52.344;12.990;2023-08-24T09:02:47;2.97;;;2.47;;
9661;SDS011;24982;52.344;12.990;2023-08-24T09:05:52;3.85;;;2.42;;
9661;SDS011;24982;52.344;12.990;2023-08-24T09:08:54;2.55;;;2.45;;
9661;SDS011;24982;52.344;12.990;2023-08-24T09:11:57;2.67;;;2.10;;
9661;SDS011;24982;52.344;12.990;2023-08-24T09:15:00;3.80;;;2.40;;
9661;SDS011;24982;52.344;12.990;2023-08-24T09:18:05;2.38;;;2.28;;
9661;SDS011;24982;52.344;12.990;2023-08-24T09:21:11;2.22;;;2.13;;
9661;SDS011;24982;52.344;12.990;2023-08-24T09:24:14;2.53;;;2.33;;
9661;SDS011;24982;52.344;12.990;2023-08-24T09:27:16;2.53;;;2.35;;
9661;SDS011;24982;52.344;12.990;2023-08-24T09:30:19;4.60;;;2.88;;
9661;SDS011;24982;52.344;12.990;2023-08-24T09:33:21;2.63;;;2.50;;
9661;SDS011;24982;52.344;12.990;2023-08-24T09:36:26;3.17;;;2.70;;
9661;SDS011;24982;52.344;12.990;2023-08-24T09:39:32;2.53;;;2.42;;
9661;SDS011;24982;52.344;12.990;2023-08-24T09:42:37;4.78;;;2.70;;
9661;SDS011;24982;52.344;12.990;2023-08-24T09:45:47;4.40;;;2.70;;
9661;SDS011;24982;52.344;12.990;2023-08-24T09:48:53;4.10;;;2.65;;
9661;SDS011;24982;52.344;12.990;2023-08-24T09:52:02;3.97;;;2.83;;
9661;SDS011;24982;52.344;12.990;2023-08-24T09:55:07;3.45;;;2.88;;
9661;SDS011;24982;52.344;12.990;2023-08-24T09:58:11;3.90;;;2.95;;
9661;SDS011;24982;52.344;12.990;2023-08-24T10:01:13;3.80;;;2.63;;
9661;SDS011;24982;52.344;12.990;2023-08-24T10:04:21;4.50;;;2.65;;
9661;SDS011;24982;52.344;12.990;2023-08-24T10:07:25;5.82;;;2.80;;
9661;SDS011;24982;52.344;12.990;2023-08-24T10:10:28;4.25;;;2.90;;
9661;SDS011;24982;52.344;12.990;2023-08-24T10:13:39;3.72;;;2.25;;
9661;SDS011;24982;52.344;12.990;2023-08-24T10:16:45;2.65;;;2.42;;
9661;SDS011;24982;52.344;12.990;2023-08-24T10:19:48;2.40;;;2.20;;
9661;SDS011;24982;52.344;12.990;2023-08-24T10:22:54;2.70;;;2.50;;
9661;SDS011;24982;52.344;12.990;2023-08-24T10:25:58;3.65;;;2.45;;
9661;SDS011;24982;52.344;12.990;2023-08-24T10:29:03;2.47;;;2.30;;
9661;SDS011;24982;52.344;12.990;2023-08-24T10:32:06;2.80;;;2.20;;
9661;SDS011;24982;52.344;12.990;2023-08-24T10:35:10;3.03;;;2.80;;
9661;SDS011;24982;52.344;12.990;2023-08-24T10:38:28;2.90;;;2.65;;
9661;SDS011;24982;52.344;12.990;2023-08-24T10:41:45;5.55;;;2.55;;
9661;SDS011;24982;52.344;12.990;2023-08-24T10:44:48;4.28;;;2.40;;
9661;SDS011;24982;52.344;12.990;2023-08-24T10:47:52;2.35;;;2.15;;
9661;SDS011;24982;52.344;12.990;2023-08-24T10:54:24;6.93;;;2.42;;
9661;SDS011;24982;52.344;12.990;2023-08-24T10:57:35;4.95;;;2.60;;
9661;SDS011;24982;52.344;12.990;2023-08-24T11:00:41;4.35;;;2.58;;
9661;SDS011;24982;52.344;12.990;2023-08-24T11:03:50;5.22;;;2.40;;
9661;SDS011;24982;52.344;12.990;2023-08-24T11:06:56;4.68;;;2.63;;
9661;SDS011;24982;52.344;12.990;2023-08-24T11:10:12;3.63;;;2.78;;
9661;SDS011;24982;52.344;12.990;2023-08-24T11:13:16;2.85;;;2.65;;
9661;SDS011;24982;52.344;12.990;2023-08-24T11:19:46;5.22;;;2.55;;
9661;SDS011;24982;52.344;12.990;2023-08-24T11:22:49;2.47;;;2.28;;
9661;SDS011;24982;52.344;12.990;2023-08-24T11:25:56;4.10;;;2.42;;
9661;SDS011;24982;52.344;12.990;2023-08-24T11:28:59;2.58;;;2.38;;
9661;SDS011;24982;52.344;12.990;2023-08-24T11:32:01;2.22;;;2.15;;
9661;SDS011;24982;52.344;12.990;2023-08-24T11:35:04;5.10;;;2.40;;
9661;SDS011;24982;52.344;12.990;2023-08-24T11:38:07;2.80;;;2.60;;
9661;SDS011;24982;52.344;12.990;2023-08-24T11:41:14;2.88;;;2.63;;
9661;SDS011;24982;52.344;12.990;2023-08-24T11:44:17;3.38;;;2.40;;
9661;SDS011;24982;52.344;12.990;2023-08-24T11:47:19;3.60;;;2.60;;
9661;SDS011;24982;52.344;12.990;2023-08-24T11:50:23;6.40;;;2.80;;
9661;SDS011;24982;52.344;12.990;2023-08-24T11:53:25;2.55;;;2.42;;
9661;SDS011;24982;52.344;12.990;2023-08-24T11:56:29;2.13;;;2.03;;
9661;SDS011;24982;52.344;12.990;2023-08-24T11:59:31;3.17;;;2.22;;
9661;SDS011;24982;52.344;12.990;2023-08-24T12:02:33;2.75;;;2.53;;
9661;SDS011;24982;52.344;12.990;2023-08-24T12:05:36;2.67;;;2.20;;
9661;SDS011;24982;52.344;12.990;2023-08-24T12:08:39;2.75;;;2.45;;
9661;SDS011;24982;52.344;12.990;2023-08-24T12:11:42;2.47;;;2.28;;
9661;SDS011;24982;52.344;12.990;2023-08-24T12:14:45;4.28;;;2.33;;
9661;SDS011;24982;52.344;12.990;2023-08-24T12:17:48;3.85;;;2.47;;
9661;SDS011;24982;52.344;12.990;2023-08-24T12:20:49;2.70;;;2.50;;
9661;SDS011;24982;52.344;12.990;2023-08-24T12:23:55;2.58;;;2.38;;
9661;SDS011;24982;52.344;12.990;2023-08-24T12:27:02;3.05;;;2.50;;
9661;SDS011;24982;52.344;12.990;2023-08-24T12:30:04;2.67;;;2.47;;
9661;SDS011;24982;52.344;12.990;2023-08-24T12:33:07;2.72;;;2.53;;
9661;SDS011;24982;52.344;12.990;2023-08-24T12:36:09;2.60;;;2.40;;
9661;SDS011;24982;52.344;12.990;2023-08-24T12:39:11;2.63;;;2.20;;
9661;SDS011;24982;52.344;12.990;2023-08-24T12:42:15;3.08;;;2.75;;
9661;SDS011;24982;52.344;12.990;2023-08-24T12:45:17;2.63;;;2.50;;
9661;SDS011;24982;52.344;12.990;2023-08-24T12:48:19;3.55;;;2.35;;
9661;SDS011;24982;52.344;12.990;2023-08-24T12:51:21;2.90;;;2.25;;
9661;SDS011;24982;52.344;12.990;2023-08-24T12:54:24;4.90;;;2.42;;
9661;SDS011;24982;52.344;12.990;2023-08-24T12:57:27;2.33;;;2.20;;
9661;SDS011;24982;52.344;12.990;2023-08-24T13:00:29;3.80;;;2.50;;
9661;SDS011;24982;52.344;12.990;2023-08-24T13:03:33;3.28;;;2.70;;
9661;SDS011;24982;52.344;12.990;2023-08-24T13:06:36;2.90;;;2.60;;
9661;SDS011;24982;52.344;12.990;2023-08-24T13:09:38;4.95;;;3.00;;
9661;SDS011;24982;52.344;12.990;2023-08-24T13:12:43;2.33;;;2.25;;
9661;SDS011;24982;52.344;12.990;2023-08-24T13:15:48;2.47;;;2.33;;
9661;SDS011;24982;52.344;12.990;2023-08-24T13:18:51;3.60;;;2.50;;
9661;SDS011;24982;52.344;12.990;2023-08-24T13:21:53;2.78;;;2.42;;
9661;SDS011;24982;52.344;12.990;2023-08-24T13:24:55;3.78;;;2.45;;
9661;SDS011;24982;52.344;12.990;2023-08-24T13:27:58;3.65;;;2.47;;
9661;SDS011;24982;52.344;12.990;2023-08-24T13:31:40;2.40;;;2.20;;
9661;SDS011;24982;52.344;12.990;2023-08-24T13:34:30;3.40;;;2.33;;
9661;SDS011;24982;52.344;12.990;2023-08-24T13:41:38;2.47;;;2.35;;
9661;SDS011;24982;52.344;12.990;2023-08-24T13:44:42;2.50;;;2.40;;
9661;SDS011;24982;52.344;12.990;2023-08-24T13:47:46;4.53;;;2.70;;
9661;SDS011;24982;52.344;12.990;2023-08-24T13:50:49;2.70;;;2.50;;
9661;SDS011;24982;52.344;12.990;2023-08-24T13:53:53;2.70;;;2.50;;
9661;SDS011;24982;52.344;12.990;2023-08-24T13:56:56;2.45;;;2.25;;
9661;SDS011;24982;52.344;12.990;2023-08-24T14:00:02;3.47;;;2.67;;
9661;SDS011;24982;52.344;12.990;2023-08-24T14:03:12;2.83;;;2.50;;
9661;SDS011;24982;52.344;12.990;2023-08-24T14:06:16;2.70;;;2.50;;
9661;SDS011;24982;52.344;12.990;2023-08-24T14:09:19;3.20;;;2.72;;
9661;SDS011;24982;52.344;12.990;2023-08-24T14:12:22;3.05;;;2.80;;
9661;SDS011;24982;52.344;12.990;2023-08-24T14:15:27;3.08;;;2.80;;
9661;SDS011;24982;52.344;12.990;2023-08-24T14:18:30;2.47;;;2.35;;
9661;SDS011;24982;52.344;12.990;2023-08-24T14:21:36;3.95;;;2.60;;
9661;SDS011;24982;52.344;12.990;2023-08-24T14:24:39;2.47;;;2.33;;
9661;SDS011;24982;52.344;12.990;2023-08-24T14:27:42;2.70;;;2.50;;
9661;SDS011;24982;52.344;12.990;2023-08-24T14:30:47;2.60;;;2.50;;
9661;SDS011;24982;52.344;12.990;2023-08-24T14:33:51;3.03;;;2.70;;
9661;SDS011;24982;52.344;12.990;2023-08-24T14:36:54;2.85;;;2.55;;
9661;SDS011;24982;52.344;12.990;2023-08-24T14:39:57;4.18;;;2.70;;
9661;SDS011;24982;52.344;12.990;2023-08-24T14:43:00;2.45;;;2.22;;
9661;SDS011;24982;52.344;12.990;2023-08-24T14:46:05;3.28;;;2.50;;
9661;SDS011;24982;52.344;12.990;2023-08-24T14:49:08;2.70;;;2.50;;
9661;SDS011;24982;52.344;12.990;2023-08-24T14:52:11;2.63;;;2.45;;
9661;SDS011;24982;52.344;12.990;2023-08-24T14:55:14;2.78;;;2.28;;
9661;SDS011;24982;52.344;12.990;2023-08-24T14:58:20;5.15;;;2.67;;
9661;SDS011;24982;52.344;12.990;2023-08-24T15:01:24;2.53;;;2.42;;
9661;SDS011;24982;52.344;12.990;2023-08-24T15:04:28;3.65;;;2.42;;
9661;SDS011;24982;52.344;12.990;2023-08-24T15:07:30;3.20;;;2.42;;
9661;SDS011;24982;52.344;12.990;2023-08-24T15:10:33;3.50;;;2.60;;
9661;SDS011;24982;52.344;12.990;2023-08-24T15:13:37;3.05;;;2.72;;
9661;SDS011;24982;52.344;12.990;2023-08-24T15:16:42;2.53;;;2.35;;
9661;SDS011;24982;52.344;12.990;2023-08-24T15:19:44;3.05;;;2.40;;
9661;SDS011;24982;52.344;12.990;2023-08-24T15:22:47;2.67;;;2.45;;
9661;SDS011;24982;52.344;12.990;2023-08-24T15:25:49;4.25;;;2.70;;
9661;SDS011;24982;52.344;12.990;2023-08-24T15:29:08;2.22;;;2.13;;
9661;SDS011;24982;52.344;12.990;2023-08-24T15:32:13;5.75;;;2.60;;
9661;SDS011;24982;52.344;12.990;2023-08-24T15:35:15;2.95;;;2.63;;
9661;SDS011;24982;52.344;12.990;2023-08-24T15:38:17;2.88;;;2.40;;
9661;SDS011;24982;52.344;12.990;2023-08-24T15:41:19;3.33;;;2.80;;
9661;SDS011;24982;52.344;12.990;2023-08-24T15:44:22;3.10;;;2.80;;
9661;SDS011;24982;52.344;12.990;2023-08-24T15:47:25;5.47;;;2.40;;
9661;SDS011;24982;52.344;12.990;2023-08-24T15:50:27;4.55;;;2.80;;
9661;SDS011;24982;52.344;12.990;2023-08-24T15:53:29;2.60;;;2.40;;
9661;SDS011;24982;52.344;12.990;2023-08-24T15:56:31;2.90;;;2.70;;
9661;SDS011;24982;52.344;12.990;2023-08-24T15:59:33;2.38;;;2.17;;
9661;SDS011;24982;52.344;12.990;2023-08-24T16:02:37;3.20;;;2.90;;
9661;SDS011;24982;52.344;12.990;2023-08-24T16:05:39;3.10;;;2.30;;
9661;SDS011;24982;52.344;12.990;2023-08-24T16:08:41;3.42;;;2.53;;
9661;SDS011;24982;52.344;12.990;2023-08-24T16:11:43;2.67;;;2.47;;
9661;SDS011;24982;52.344;12.990;2023-08-24T16:14:44;4.38;;;2.60;;
9661;SDS011;24982;52.344;12.990;2023-08-24T16:17:48;2.78;;;2.50;;
9661;SDS011;24982;52.344;12.990;2023-08-24T16:20:50;3.78;;;2.70;;
9661;SDS011;24982;52.344;12.990;2023-08-24T16:23:52;2.90;;;2.70;;
9661;SDS011;24982;52.344;12.990;2023-08-24T16:26:54;2.97;;;2.78;;
9661;SDS011;24982;52.344;12.990;2023-08-24T16:29:55;3.70;;;2.97;;
9661;SDS011;24982;52.344;12.990;2023-08-24T16:32:59;3.08;;;2.85;;
9661;SDS011;24982;52.344;12.990;2023-08-24T16:36:01;3.42;;;2.58;;
9661;SDS011;24982;52.344;12.990;2023-08-24T16:39:03;2.83;;;2.60;;
9661;SDS011;24982;52.344;12.990;2023-08-24T16:42:05;3.00;;;2.80;;
9661;SDS011;24982;52.344;12.990;2023-08-24T16:45:08;3.28;;;2.85;;
9661;SDS011;24982;52.344;12.990;2023-08-24T16:48:12;4.60;;;2.90;;
9661;SDS011;24982;52.344;12.990;2023-08-24T16:51:14;3.08;;;2.72;;
9661;SDS011;24982;52.344;12.990;2023-08-24T16:54:16;3.13;;;2.90;;
9661;SDS011;24982;52.344;12.990;2023-08-24T16:57:18;2.95;;;2.85;;
9661;SDS011;24982;52.344;12.990;2023-08-24T17:00:20;3.03;;;2.83;;
9661;SDS011;24982;52.344;12.990;2023-08-24T17:03:23;3.10;;;2.75;;
9661;SDS011;24982;52.344;12.990;2023-08-24T17:06:25;3.30;;;3.00;;
9661;SDS011;24982;52.344;12.990;2023-08-24T17:09:27;4.72;;;2.90;;
9661;SDS011;24982;52.344;12.990;2023-08-24T17:12:28;3.35;;;3.05;;
9661;SDS011;24982;52.344;12.990;2023-08-24T17:15:30;3.33;;;3.10;;
9661;SDS011;24982;52.344;12.990;2023-08-24T17:18:34;3.15;;;2.88;;
9661;SDS011;24982;52.344;12.990;2023-08-24T17:21:36;3.40;;;3.20;;
9661;SDS011;24982;52.344;12.990;2023-08-24T17:24:38;3.50;;;3.20;;
9661;SDS011;24982;52.344;12.990;2023-08-24T17:27:40;4.00;;;3.60;;
9661;SDS011;24982;52.344;12.990;2023-08-24T17:30:44;4.25;;;3.90;;
9661;SDS011;24982;52.344;12.990;2023-08-24T17:33:48;4.30;;;3.70;;
9661;SDS011;24982;52.344;12.990;2023-08-24T17:36:50;4.90;;;3.83;;
9661;SDS011;24982;52.344;12.990;2023-08-24T17:39:52;4.65;;;3.30;;
9661;SDS011;24982;52.344;12.990;2023-08-24T17:42:54;3.42;;;3.13;;
9661;SDS011;24982;52.344;12.990;2023-08-24T17:45:55;3.55;;;3.25;;
9661;SDS011;24982;52.344;12.990;2023-08-24T17:48:59;3.50;;;3.30;;
9661;SDS011;24982;52.344;12.990;2023-08-24T17:52:01;3.70;;;3.50;;
9661;SDS011;24982;52.344;12.990;2023-08-24T17:55:04;3.72;;;3.40;;
9661;SDS011;24982;52.344;12.990;2023-08-24T17:58:06;3.67;;;3.38;;
9661;SDS011;24982;52.344;12.990;2023-08-24T18:01:08;3.88;;;3.58;;
9661;SDS011;24982;52.344;12.990;2023-08-24T18:04:12;3.70;;;3.40;;
9661;SDS011;24982;52.344;12.990;2023-08-24T18:07:14;7.47;;;3.58;;
9661;SDS011;24982;52.344;12.990;2023-08-24T18:10:17;3.92;;;3.67;;
9661;SDS011;24982;52.344;12.990;2023-08-24T18:13:19;4.90;;;3.45;;
9661;SDS011;24982;52.344;12.990;2023-08-24T18:16:21;4.35;;;3.40;;
9661;SDS011;24982;52.344;12.990;2023-08-24T18:19:24;4.13;;;3.70;;
9661;SDS011;24982;52.344;12.990;2023-08-24T18:22:26;4.07;;;3.78;;
9661;SDS011;24982;52.344;12.990;2023-08-24T18:25:28;4.43;;;3.40;;
9661;SDS011;24982;52.344;12.990;2023-08-24T18:28:30;4.65;;;3.83;;
9661;SDS011;24982;52.344;12.990;2023-08-24T18:31:33;3.92;;;3.63;;
9661;SDS011;24982;52.344;12.990;2023-08-24T18:34:38;3.50;;;3.30;;
9661;SDS011;24982;52.344;12.990;2023-08-24T18:37:40;4.20;;;3.80;;
9661;SDS011;24982;52.344;12.990;2023-08-24T18:40:42;3.97;;;3.70;;